Pagrindinis puslapis
METAR-TAF:

METAR-TAF

Oro uostai :

Carlsbad, Naujoji Meksika, Jungtinės Amerikos Valstijos

platuma: 32-20-15N, ilguma: 104-15-48W, Aukštis: 1004 m

Dabartinis oras

Ataskaita buvo paskelbta 58 minutes, ne 15:53 UTC
Vėjas 13 kt iš Šiaurės
Temperatūra 17°C
Drėgmė 29%
Slėgis 1029 hPa
Matomumas: 16.1 km
Išsisklaidę debesys ne aukštis 7500 ft

METAR: KCNM 281553Z AUTO 36013KT 10SM SCT075 17/M01 A3039 RMK AO2 SLP248 T01671006

Laikas: 10:51 (16:51 UTC)

Prognozė

Ataskaita buvo paskelbta 3 valandos ir 8 minutes, ne 13:43 UTC
Prognozė galioja nuo 28 metu 14 UTC su 29 metu 12 UTC
Vėjas 14 kt iš Šiaurės su gūsio iki 22 kt
Matomumas: 10 km
Su prošvaistėmis ne aukštis 7000 ft
Nuo 28 metu 1800 UTC
Vėjas 11 kt iš Šiaurės Rytų
Matomumas: 10 km
Giedras dangus

TAF: KCNM 281343Z 2814/2912 36014G22KT P6SM BKN070 FM281800 04011KT P6SM SKC

Orai ataskaitas ir orų prognozės (METAR, TAF).

turimą stotys yra geltonos ir raudonos taškus žemėlapyje.

Perkelti pele per norėdami pamatyti stoties vardą.

Tada spustelėkite, norėdami matyti oro stebėjimo ir prognozės.

Norėdami pakeisti žemėlapį: spustelėkite ant žalios mygtukų su juodo kryžiaus žemyn,; žalią mygtuką su brūkšneliu, jei norite nutolinti; arba žalių rodyklių gretimoms žemėlapius.


METAR-TAF: